Gokay K — TCHF — position and weather

sailwx.info

Track history (hours):
 
Tides and Currents Weather Stations Pressure Air Temp Water Temp Dewpoint Dewpoint Depression Visibility Wind Speed Wind Dir Waves Ship Positions

Gokay K

Last reported at 2014-Jul-10 06:26 UTC. Time now 2014-Jul-25 11:20 UTC.
Position N 45°06' E 031°24'.
Warning: this ship's position is 15 days out of date.

Length 118 m; draft 7.2 m.

Type: Ship. MMSI: 271000029.

Date/timePositionNaut miles runAvg speedWind from/ knotsBaromVisibWave heightAir tempDewpointWater temp
2014-Jul-10 06:26N 45°06' E 031°24'7 8.2
2014-Jul-10 05:33N 45°13' E 031°22'8 8.1
2014-Jul-10 04:31N 45°21' E 031°19'8 8.2
2014-Jul-10 03:33N 45°29' E 031°16'8 8.0
2014-Jul-10 02:33N 45°36' E 031°13'8 8.3
2014-Jul-10 01:33N 45°44' E 031°10'8 8.2
2014-Jul-10 00:32N 45°52' E 031°07'8 8.1
2014-Jul-09 23:33N 46°00' E 031°06'8 8.1
2014-Jul-09 22:33N 46°08' E 031°03'8 8.3
2014-Jul-09 21:33N 46°15' E 030°56'8 8.1
2014-Jul-09 20:33N 46°23' E 030°55'8 8.2
2014-Jul-09 19:33N 46°31' E 030°55'8 7.6
2014-Jul-09 18:33N 46°35' E 031°05'35 7.1
2014-Jul-09 13:33N 46°40' E 031°56'7 7.3
2014-Jul-09 12:33N 46°47' E 031°53'8 7.9
2014-Jul-09 11:33N 46°53' E 032°00'3 3.3
2014-Jul-09 10:32N 46°57' E 032°00'0 0.0
2014-Jul-09 09:32N 46°57' E 032°00'0 0.0
2014-Jul-09 08:32N 46°57' E 032°00'0 0.0
2014-Jul-09 07:32N 46°57' E 032°00'0 0.0
2014-Jul-09 06:32N 46°57' E 032°00'0 0.0
2014-Jul-09 05:32N 46°57' E 032°00'0 0.0
2014-Jul-09 04:32N 46°57' E 032°00'0 0.0
2014-Jul-09 03:32N 46°57' E 032°00'0 0.0
2014-Jul-09 02:32N 46°57' E 032°00'0 0.0
2014-Jul-09 01:32N 46°57' E 032°00'0 0.0
2014-Jul-09 00:32N 46°57' E 032°00'0 0.0
2014-Jul-08 23:29N 46°57' E 032°00'0 0.0
2014-Jul-08 22:32N 46°57' E 032°00'0 0.0
2014-Jul-08 21:32N 46°57' E 032°00'0 0.0
2014-Jul-08 20:32N 46°57' E 032°00'0 0.0
2014-Jul-08 19:32N 46°57' E 032°00'0 0.0
2014-Jul-08 18:32N 46°57' E 032°00'0 0.0
2014-Jul-08 17:32N 46°57' E 032°00'0 0.0
2014-Jul-08 16:29N 46°57' E 032°00'0 0.0
2014-Jul-08 15:32N 46°57' E 032°00'0 0.0
2014-Jul-08 14:32N 46°57' E 032°00'0 0.0
2014-Jul-08 13:32N 46°57' E 032°00'0 0.0
2014-Jul-08 12:32N 46°57' E 032°00'0 0.0
2014-Jul-08 11:32N 46°57' E 032°00'0 0.0
2014-Jul-08 10:32N 46°57' E 032°00'0 0.0
2014-Jul-08 09:32N 46°57' E 032°00'0 0.0
2014-Jul-08 08:29N 46°57' E 032°00'0 0.0
2014-Jul-08 07:32N 46°57' E 032°00'0 0.0
2014-Jul-08 06:32N 46°57' E 032°00'0 0.0
2014-Jul-08 05:29N 46°57' E 032°00'0 0.0
2014-Jul-08 04:32N 46°57' E 032°00'0 0.0
2014-Jul-08 03:32N 46°57' E 032°00'0 0.0
2014-Jul-08 02:32N 46°57' E 032°00'0 0.0
2014-Jul-08 01:32N 46°57' E 032°00'0 0.0
2014-Jul-08 00:32N 46°57' E 032°00'0 0.0
2014-Jul-07 23:32N 46°57' E 032°00'0 0.0
2014-Jul-07 22:32N 46°57' E 032°00'0 0.0
2014-Jul-07 21:32N 46°57' E 032°00'0 0.0
2014-Jul-07 20:32N 46°57' E 032°00'0 0.0
2014-Jul-07 19:32N 46°57' E 032°00'0 0.0
2014-Jul-07 18:32N 46°57' E 032°00'0 0.0
2014-Jul-07 17:32N 46°57' E 032°00'0 0.0
2014-Jul-07 16:32N 46°57' E 032°00'0 0.0
2014-Jul-07 15:32N 46°57' E 032°00'0 0.0
2014-Jul-07 14:32N 46°57' E 032°00'0 0.0
2014-Jul-07 13:32N 46°57' E 032°00'0 0.0
2014-Jul-07 12:32N 46°57' E 032°00'0 0.0
2014-Jul-07 11:32N 46°57' E 032°00'1 0.7
2014-Jul-07 10:33N 46°56' E 032°01'7 6.5
2014-Jul-07 09:34N 46°51' E 031°57'7 6.8
2014-Jul-07 08:33N 46°44' E 031°56'8 7.7
2014-Jul-07 07:32N 46°37' E 031°51'8 8.3
2014-Jul-07 06:33N 46°36' E 031°39'19 8.1
2014-Jul-07 04:09N 46°35' E 031°11'6 8.9
2014-Jul-07 03:32N 46°34' E 031°03'31 1.3
2014-Jul-06 04:31N 46°04' E 031°08'9 8.9
2014-Jul-06 03:33N 45°55' E 031°07'  
2014-Jul-02 19:33N 41°17' E 029°34'9 8.5
2014-Jul-02 18:32N 41°17' E 029°23'139 6.0
2014-Jul-01 19:29N 40°19' E 026°36'144 6.6
2014-Jun-30 21:33N 37°56' E 026°14'9 7.9
2014-Jun-30 20:28N 37°50' E 026°22'7 7.7
2014-Jun-30 19:32N 37°45' E 026°28'16 7.0
2014-Jun-30 17:13N 37°33' E 026°42'5 7.5
2014-Jun-30 16:33N 37°29' E 026°46'7 7.2
2014-Jun-30 15:33N 37°23' E 026°52'7 7.2
2014-Jun-30 14:33N 37°17' E 026°56'8 7.7
2014-Jun-30 13:32N 37°10' E 026°60'8 7.8
2014-Jun-30 12:32N 37°03' E 027°03'  
Track history (hours):
 
Tides and Currents Weather Stations Pressure Air Temp Water Temp Dewpoint Dewpoint Depression Visibility Wind Speed Wind Dir Waves Ship Positions

Gokay K

Last reported at 2014-Jul-10 06:26 UTC. Time now 2014-Jul-25 11:20 UTC.
Position N 45°06' E 031°24'.
Warning: this ship's position is 15 days out of date.

Length 118 m; draft 7.2 m.

Type: Ship. MMSI: 271000029.

Date/timePositionNaut miles runAvg speedWind from/ knotsBaromVisibWave heightAir tempDewpointWater temp
2014-Jul-10 06:26N 45°06' E 031°24'7 8.2
2014-Jul-10 05:33N 45°13' E 031°22'8 8.1
2014-Jul-10 04:31N 45°21' E 031°19'8 8.2
2014-Jul-10 03:33N 45°29' E 031°16'8 8.0
2014-Jul-10 02:33N 45°36' E 031°13'8 8.3
2014-Jul-10 01:33N 45°44' E 031°10'8 8.2
2014-Jul-10 00:32N 45°52' E 031°07'8 8.1
2014-Jul-09 23:33N 46°00' E 031°06'8 8.1
2014-Jul-09 22:33N 46°08' E 031°03'8 8.3
2014-Jul-09 21:33N 46°15' E 030°56'8 8.1
2014-Jul-09 20:33N 46°23' E 030°55'8 8.2
2014-Jul-09 19:33N 46°31' E 030°55'8 7.6
2014-Jul-09 18:33N 46°35' E 031°05'35 7.1
2014-Jul-09 13:33N 46°40' E 031°56'7 7.3
2014-Jul-09 12:33N 46°47' E 031°53'8 7.9
2014-Jul-09 11:33N 46°53' E 032°00'3 3.3
2014-Jul-09 10:32N 46°57' E 032°00'0 0.0
2014-Jul-09 09:32N 46°57' E 032°00'0 0.0
2014-Jul-09 08:32N 46°57' E 032°00'0 0.0
2014-Jul-09 07:32N 46°57' E 032°00'0 0.0
2014-Jul-09 06:32N 46°57' E 032°00'0 0.0
2014-Jul-09 05:32N 46°57' E 032°00'0 0.0
2014-Jul-09 04:32N 46°57' E 032°00'0 0.0
2014-Jul-09 03:32N 46°57' E 032°00'0 0.0
2014-Jul-09 02:32N 46°57' E 032°00'0 0.0
2014-Jul-09 01:32N 46°57' E 032°00'0 0.0
2014-Jul-09 00:32N 46°57' E 032°00'0 0.0
2014-Jul-08 23:29N 46°57' E 032°00'0 0.0
2014-Jul-08 22:32N 46°57' E 032°00'0 0.0
2014-Jul-08 21:32N 46°57' E 032°00'0 0.0
2014-Jul-08 20:32N 46°57' E 032°00'0 0.0
2014-Jul-08 19:32N 46°57' E 032°00'0 0.0
2014-Jul-08 18:32N 46°57' E 032°00'0 0.0
2014-Jul-08 17:32N 46°57' E 032°00'0 0.0
2014-Jul-08 16:29N 46°57' E 032°00'0 0.0
2014-Jul-08 15:32N 46°57' E 032°00'0 0.0
2014-Jul-08 14:32N 46°57' E 032°00'0 0.0
2014-Jul-08 13:32N 46°57' E 032°00'0 0.0
2014-Jul-08 12:32N 46°57' E 032°00'0 0.0
2014-Jul-08 11:32N 46°57' E 032°00'0 0.0
2014-Jul-08 10:32N 46°57' E 032°00'0 0.0
2014-Jul-08 09:32N 46°57' E 032°00'0 0.0
2014-Jul-08 08:29N 46°57' E 032°00'0 0.0
2014-Jul-08 07:32N 46°57' E 032°00'0 0.0
2014-Jul-08 06:32N 46°57' E 032°00'0 0.0
2014-Jul-08 05:29N 46°57' E 032°00'0 0.0
2014-Jul-08 04:32N 46°57' E 032°00'0 0.0
2014-Jul-08 03:32N 46°57' E 032°00'0 0.0
2014-Jul-08 02:32N 46°57' E 032°00'0 0.0
2014-Jul-08 01:32N 46°57' E 032°00'0 0.0
2014-Jul-08 00:32N 46°57' E 032°00'0 0.0
2014-Jul-07 23:32N 46°57' E 032°00'0 0.0
2014-Jul-07 22:32N 46°57' E 032°00'0 0.0
2014-Jul-07 21:32N 46°57' E 032°00'0 0.0
2014-Jul-07 20:32N 46°57' E 032°00'0 0.0
2014-Jul-07 19:32N 46°57' E 032°00'0 0.0
2014-Jul-07 18:32N 46°57' E 032°00'0 0.0
2014-Jul-07 17:32N 46°57' E 032°00'0 0.0
2014-Jul-07 16:32N 46°57' E 032°00'0 0.0
2014-Jul-07 15:32N 46°57' E 032°00'0 0.0
2014-Jul-07 14:32N 46°57' E 032°00'0 0.0
2014-Jul-07 13:32N 46°57' E 032°00'0 0.0
2014-Jul-07 12:32N 46°57' E 032°00'0 0.0
2014-Jul-07 11:32N 46°57' E 032°00'1 0.7
2014-Jul-07 10:33N 46°56' E 032°01'7 6.5
2014-Jul-07 09:34N 46°51' E 031°57'7 6.8
2014-Jul-07 08:33N 46°44' E 031°56'8 7.7
2014-Jul-07 07:32N 46°37' E 031°51'8 8.3
2014-Jul-07 06:33N 46°36' E 031°39'19 8.1
2014-Jul-07 04:09N 46°35' E 031°11'6 8.9
2014-Jul-07 03:32N 46°34' E 031°03'31 1.3
2014-Jul-06 04:31N 46°04' E 031°08'9 8.9
2014-Jul-06 03:33N 45°55' E 031°07'  
2014-Jul-02 19:33N 41°17' E 029°34'9 8.5
2014-Jul-02 18:32N 41°17' E 029°23'139 6.0
2014-Jul-01 19:29N 40°19' E 026°36'144 6.6
2014-Jun-30 21:33N 37°56' E 026°14'9 7.9
2014-Jun-30 20:28N 37°50' E 026°22'7 7.7
2014-Jun-30 19:32N 37°45' E 026°28'16 7.0
2014-Jun-30 17:13N 37°33' E 026°42'5 7.5
2014-Jun-30 16:33N 37°29' E 026°46'7 7.2
2014-Jun-30 15:33N 37°23' E 026°52'7 7.2
2014-Jun-30 14:33N 37°17' E 026°56'8 7.7
2014-Jun-30 13:32N 37°10' E 026°60'8 7.8
2014-Jun-30 12:32N 37°03' E 027°03'  

Dump ship's entire track history